Nearby METAR Reports

 

KMLP - Mullan Pass, Idaho, USA
Distance from station: NE 41mi, 66km
Updated: Sun, 22-May-2022 2:53am PDT
Overcast
Overcast
 Wind from ESE
Wind: ESE 3 mph , 6 km/h
Temperature: 34°F , 1°C
Dew Point: 19°F , -7°C
Humidity: 56%
Barometer: 30.17 inHg , 1021.7 hPa
Clouds: Overcast
Visibility: 10 miles , 16 km
Cloud details: Overcast 8000 ft
2022/05/22 09:53 KMLP 220953Z AUTO 12003KT 10SM OVC080 01/M07 A3017 RMK AO2 SLP178 T00111067
KPUW - Pullman/Moscow, Washington, USA
Distance from station: SW 42mi, 68km
Updated: Sun, 22-May-2022 2:53am PDT
Clear
Clear
 Wind from calm
Wind: Calm
Temperature: 36°F , 2°C
Dew Point: 32°F , 0°C
Humidity: 87%
Barometer: 30.20 inHg , 1022.7 hPa
Clouds: Clear
Visibility: 10 miles , 16 km
2022/05/22 09:53 KPUW 220953Z AUTO 00000KT 10SM CLR 02/00 A3020 RMK AO2 SLP239 T00220000
 
KCOE - Coeur D'alene, Idaho, USA
Distance from station: NNW 49mi, 79km
Updated: Sun, 22-May-2022 2:56am PDT
Few Clouds
Few Clouds
 Wind from E
Wind: E 3 mph , 6 km/h
Temperature: 41°F , 5°C
Dew Point: 39°F , 4°C
Humidity: 93%
Barometer: 30.21 inHg , 1023 hPa
Clouds: Few Clouds
Visibility: 10 miles , 16 km
Cloud details: Few Clouds 9500 ft
2022/05/22 09:56 KCOE 220956Z AUTO 09003KT 10SM FEW095 05/04 A3021 RMK AO2 SLP258 T00500039 PNO $
KSFF - Spokane/Felts, Washington, USA
Distance from station: NW 59mi, 94km
Updated: Sun, 22-May-2022 2:53am PDT
Overcast
Overcast
 Wind from calm
Wind: Calm
Temperature: 43°F , 6°C
Dew Point: 41°F , 5°C
Humidity: 93%
Barometer: 30.22 inHg , 1023.4 hPa
Clouds: Overcast
Visibility: 10 miles , 16 km
Cloud details: Overcast 9000 ft
2022/05/22 09:53 KSFF 220953Z AUTO 00000KT 10SM OVC090 06/05 A3022 RMK AO2 SLP236 T00610050
 
KLWS - Lewiston, Idaho, USA
Distance from station: SSW 59mi, 96km
Updated: Sun, 22-May-2022 2:56am PDT
Clear
Clear
 Wind from SE
Wind: SE 5 mph , 7 km/h
Temperature: 43°F , 6°C
Wind Chill: 40°F , 4°C
Dew Point: 37°F , 3°C
Humidity: 81%
Barometer: 30.21 inHg , 1023 hPa
Clouds: Clear
Visibility: 10 miles , 16 km
2022/05/22 09:56 KLWS 220956Z AUTO 14004KT 10SM CLR 06/03 A3021 RMK AO2 SLP231 T00560028 $
KGEG - Spokane/Metro, Washington, USA
Distance from station: WNW 64mi, 103km
Updated: Sun, 22-May-2022 2:53am PDT
Partly Cloudy
Partly Cloudy
 Wind from WSW
Wind: WSW 5 mph , 7 km/h
Temperature: 41°F , 5°C
Wind Chill: 38°F , 3°C
Dew Point: 37°F , 3°C
Humidity: 87%
Barometer: 30.20 inHg , 1022.7 hPa
Clouds: Partly Cloudy
Visibility: 10 miles , 16 km
Cloud details: Partly Cloudy 7000 ft
2022/05/22 09:53 KGEG 220953Z 24004KT 10SM SCT070 05/03 A3020 RMK AO2 SLP237 T00500028
 
KSKA - Fairchild Afb, Washington, USA
Distance from station: WNW 68mi, 110km
Updated: Sun, 22-May-2022 1:58am PDT
Overcast
Overcast
 Wind from calm
Wind: Calm
Temperature: 37°F , 3°C
Dew Point: 37°F , 3°C
Humidity: 100%
Barometer: 30.19 inHg , 1022.4 hPa
Clouds: Overcast
Visibility: 10 miles , 16 km
Cloud details: Overcast 6500 ft
2022/05/22 08:58 KSKA 220858Z AUTO 00000KT 10SM OVC065 03/03 A3019 RMK AO2 SLP240 T00290028 55000 PWINO $